createdAt,value
2016-05-23T00:00:41.231Z,24.73
2016-05-23T00:01:41.406Z,24.73
2016-05-23T00:02:41.440Z,24.6
2016-05-23T00:03:41.458Z,24.6
2016-05-23T00:04:41.492Z,24.61
2016-05-23T00:05:41.526Z,24.66
2016-05-23T00:06:41.560Z,24.61
2016-05-23T00:07:41.594Z,24.65
2016-05-23T00:08:41.612Z,24.57
2016-05-23T00:09:41.350Z,24.54
2016-05-23T00:10:41.680Z,24.53
2016-05-23T00:11:41.792Z,24.42
2016-05-23T00:12:41.577Z,24.5
2016-05-23T00:13:41.610Z,24.51
2016-05-23T00:14:41.877Z,24.45
2016-05-23T00:15:41.834Z,24.42
2016-05-23T00:16:41.963Z,24.39
2016-05-23T00:17:41.886Z,24.48
2016-05-23T00:18:41.920Z,24.51
2016-05-23T00:19:42.080Z,24.45
2016-05-23T00:20:41.973Z,24.38
2016-05-23T00:21:41.882Z,24.38
2016-05-23T00:22:42.040Z,24.36
2016-05-23T00:23:42.107Z,24.36
2016-05-23T00:24:42.155Z,24.28
2016-05-23T00:25:42.157Z,24.33
2016-05-23T00:26:41.990Z,24.2
2016-05-23T00:27:42.272Z,24.26
2016-05-23T00:28:42.213Z,24.26
2016-05-23T00:29:43.106Z,24.2
2016-05-23T00:30:42.265Z,24.28
2016-05-23T00:31:42.315Z,24.21
2016-05-23T00:32:42.364Z,24.14
2016-05-23T00:33:42.367Z,24.18
2016-05-23T00:34:42.386Z,24.14
2016-05-23T00:35:42.356Z,24.03
2016-05-23T00:36:42.453Z,24.1
2016-05-23T00:37:42.472Z,24.13
2016-05-23T00:38:42.522Z,24.08
2016-05-23T00:39:42.539Z,24.02
2016-05-23T00:40:42.683Z,24.06
2016-05-23T00:41:42.700Z,23.96
2016-05-23T00:42:42.719Z,23.99
2016-05-23T00:43:42.503Z,23.95
2016-05-23T00:44:42.913Z,23.93
2016-05-23T00:45:42.727Z,23.99
2016-05-23T00:46:42.605Z,23.88
2016-05-23T00:47:42.889Z,23.93
2016-05-23T00:48:42.594Z,23.86
2016-05-23T00:49:42.676Z,23.83
2016-05-23T00:50:42.882Z,23.81
2016-05-23T00:51:42.682Z,23.86
2016-05-23T00:52:43.027Z,23.81
2016-05-23T00:53:42.967Z,23.93
2016-05-23T00:54:42.986Z,23.81
2016-05-23T00:55:43.160Z,23.8
2016-05-23T00:56:42.897Z,23.78
2016-05-23T00:57:42.916Z,23.83
2016-05-23T00:58:43.106Z,23.73
2016-05-23T00:59:43.093Z,23.77
2016-05-23T01:00:43.205Z,23.76
2016-05-23T01:01:43.209Z,23.84
2016-05-23T01:02:43.226Z,23.77
2016-05-23T01:03:43.259Z,23.8
2016-05-23T01:04:43.295Z,23.77
2016-05-23T01:05:43.312Z,23.76
2016-05-23T01:06:43.347Z,23.77
2016-05-23T01:07:43.380Z,23.66
2016-05-23T01:08:43.242Z,23.74
2016-05-23T01:09:43.120Z,23.77
2016-05-23T01:10:43.466Z,23.74
2016-05-23T01:11:43.500Z,23.69
2016-05-23T01:12:43.644Z,23.65
2016-05-23T01:13:43.553Z,23.63
2016-05-23T01:14:43.430Z,23.73
2016-05-23T01:15:43.605Z,23.66
2016-05-23T01:16:43.655Z,23.65
2016-05-23T01:17:43.672Z,23.65
2016-05-23T01:18:43.722Z,23.55
2016-05-23T01:19:43.757Z,23.62
2016-05-23T01:20:43.760Z,23.55
2016-05-23T01:21:43.777Z,23.58
2016-05-23T01:22:43.890Z,23.56
2016-05-23T01:23:43.860Z,23.54
2016-05-23T01:24:43.723Z,23.46
2016-05-23T01:25:43.757Z,23.44
2016-05-23T01:26:44.025Z,23.48
2016-05-23T01:27:43.966Z,23.5
2016-05-23T01:28:43.999Z,23.44
2016-05-23T01:29:43.720Z,23.5
2016-05-23T01:30:44.129Z,23.41
2016-05-23T01:31:44.164Z,23.36
2016-05-23T01:32:44.120Z,23.39
2016-05-23T01:33:44.153Z,23.4
2016-05-23T01:34:44.015Z,23.25
2016-05-23T01:35:44.050Z,23.28
2016-05-23T01:36:44.333Z,23.27
2016-05-23T01:37:44.258Z,23.37
2016-05-23T01:38:44.291Z,23.24
2016-05-23T01:39:44.311Z,23.23
2016-05-23T01:40:44.359Z,23.31
2016-05-23T01:41:44.378Z,23.25
2016-05-23T01:42:44.428Z,23.25
2016-05-23T01:43:44.430Z,23.21
2016-05-23T01:44:44.777Z,23.24
2016-05-23T01:45:44.498Z,23.17
2016-05-23T01:46:44.532Z,23.27
2016-05-23T01:47:44.550Z,23.21
2016-05-23T01:48:44.428Z,23.21
2016-05-23T01:49:44.618Z,23.21
2016-05-23T01:50:44.636Z,23.09
2016-05-23T01:51:44.671Z,23.2
2016-05-23T01:52:44.688Z,23.12
2016-05-23T01:53:44.723Z,23.09
2016-05-23T01:54:44.601Z,23.15
2016-05-23T01:55:44.619Z,23.15
2016-05-23T01:56:44.809Z,23.1
2016-05-23T01:57:44.843Z,22.98
2016-05-23T01:58:44.877Z,22.96
2016-05-23T01:59:44.989Z,22.98
2016-05-23T02:00:44.929Z,22.98
2016-05-23T02:01:44.806Z,23.03
2016-05-23T02:02:44.982Z,22.96
2016-05-23T02:03:45.031Z,22.99
2016-05-23T02:04:45.048Z,22.93
2016-05-23T02:05:45.068Z,22.91
2016-05-23T02:06:45.101Z,22.91
2016-05-23T02:07:45.135Z,22.81
2016-05-23T02:08:45.092Z,22.87
2016-05-23T02:09:45.282Z,22.88
2016-05-23T02:10:45.222Z,22.88
2016-05-23T02:11:45.084Z,22.84
2016-05-23T02:12:45.274Z,22.76
2016-05-23T02:13:45.307Z,22.81
2016-05-23T02:14:45.655Z,22.84
2016-05-23T02:15:45.360Z,22.8
2016-05-23T02:16:45.394Z,22.73
2016-05-23T02:17:45.427Z,22.73
2016-05-23T02:18:45.446Z,22.69
2016-05-23T02:19:45.480Z,22.65
2016-05-23T02:20:45.342Z,22.63
2016-05-23T02:21:45.377Z,22.68
2016-05-23T02:22:45.566Z,22.69
2016-05-23T02:23:45.600Z,22.63
2016-05-23T02:24:45.635Z,22.59
2016-05-23T02:25:45.684Z,22.55
2016-05-23T02:26:45.687Z,22.6
2016-05-23T02:27:45.705Z,22.53
2016-05-23T02:28:45.738Z,22.53
2016-05-23T02:29:45.898Z,22.5
2016-05-23T02:30:45.807Z,22.44
2016-05-23T02:31:45.825Z,22.44
2016-05-23T02:32:45.860Z,22.51
2016-05-23T02:33:45.893Z,22.55
2016-05-23T02:34:45.912Z,22.54
2016-05-23T02:35:45.945Z,22.55
2016-05-23T02:36:45.963Z,22.51
2016-05-23T02:37:45.998Z,22.47
2016-05-23T02:38:45.875Z,22.47
2016-05-23T02:39:45.909Z,22.44
2016-05-23T02:40:46.083Z,22.38
2016-05-23T02:41:46.134Z,22.44
2016-05-23T02:42:46.136Z,22.41
2016-05-23T02:43:46.170Z,22.35
2016-05-23T02:44:46.735Z,22.35
2016-05-23T02:45:46.222Z,22.32
2016-05-23T02:46:46.256Z,22.3
2016-05-23T02:47:46.289Z,22.35
2016-05-23T02:48:46.308Z,22.36
2016-05-23T02:49:46.342Z,22.32
2016-05-23T02:50:46.377Z,22.23
2016-05-23T02:51:46.410Z,22.25
2016-05-23T02:52:46.428Z,22.25
2016-05-23T02:53:46.290Z,22.26
2016-05-23T02:54:46.324Z,22.23
2016-05-23T02:55:46.515Z,22.32
2016-05-23T02:56:46.549Z,22.29
2016-05-23T02:57:46.567Z,22.17
2016-05-23T02:58:46.601Z,22.17
2016-05-23T02:59:46.728Z,22.13
2016-05-23T03:00:46.668Z,22.13
2016-05-23T03:01:46.531Z,22.1
2016-05-23T03:02:46.721Z,22.2
2016-05-23T03:03:46.739Z,22.15
2016-05-23T03:04:46.757Z,22.13
2016-05-23T03:05:46.806Z,22.13
2016-05-23T03:06:46.840Z,22.07
2016-05-23T03:07:46.843Z,22.04
2016-05-23T03:08:46.878Z,22.08
2016-05-23T03:09:46.911Z,22
2016-05-23T03:10:46.930Z,22.02
2016-05-23T03:11:46.823Z,22.02
2016-05-23T03:12:46.842Z,21.99
2016-05-23T03:13:47.031Z,21.98
2016-05-23T03:14:46.941Z,21.98
2016-05-23T03:15:47.084Z,22.06
2016-05-23T03:16:47.103Z,21.98
2016-05-23T03:17:47.136Z,21.98
2016-05-23T03:18:46.997Z,22
2016-05-23T03:19:47.205Z,21.95
2016-05-23T03:20:47.222Z,22.02
2016-05-23T03:21:47.085Z,21.91
2016-05-23T03:22:47.291Z,21.91
2016-05-23T03:23:47.308Z,21.82
2016-05-23T03:24:47.327Z,21.88
2016-05-23T03:25:47.361Z,21.85
2016-05-23T03:26:47.395Z,21.96
2016-05-23T03:27:47.413Z,21.8
2016-05-23T03:28:47.446Z,21.79
2016-05-23T03:29:47.481Z,21.82
2016-05-23T03:30:47.499Z,21.88
2016-05-23T03:31:47.518Z,21.79
2016-05-23T03:32:47.395Z,21.83
2016-05-23T03:33:47.585Z,21.75
2016-05-23T03:34:47.447Z,21.73
2016-05-23T03:35:47.482Z,21.79
2016-05-23T03:36:47.671Z,21.79
2016-05-23T03:37:47.706Z,21.69
2016-05-23T03:38:47.723Z,21.7
2016-05-23T03:39:47.758Z,21.73
2016-05-23T03:40:47.792Z,21.66
2016-05-23T03:41:47.654Z,21.67
2016-05-23T03:42:47.672Z,21.66
2016-05-23T03:43:47.878Z,21.66
2016-05-23T03:44:48.350Z,21.57
2016-05-23T03:45:47.914Z,21.64
2016-05-23T03:46:47.948Z,21.58
2016-05-23T03:47:47.825Z,21.62
2016-05-23T03:48:47.689Z,21.6
2016-05-23T03:49:47.878Z,21.57
2016-05-23T03:50:48.069Z,21.58
2016-05-23T03:51:48.087Z,21.62
2016-05-23T03:52:48.121Z,21.58
2016-05-23T03:53:48.139Z,21.6
2016-05-23T03:54:48.158Z,21.54
2016-05-23T03:55:48.192Z,21.52
2016-05-23T03:56:48.225Z,21.52
2016-05-23T03:57:48.260Z,21.62
2016-05-23T03:58:48.121Z,21.61
2016-05-23T03:59:48.983Z,21.48
2016-05-23T04:00:48.346Z,21.54
2016-05-23T04:01:48.379Z,21.51
2016-05-23T04:02:48.398Z,21.48
2016-05-23T04:03:48.416Z,21.52
2016-05-23T04:04:48.451Z,21.51
2016-05-23T04:05:48.499Z,21.43
2016-05-23T04:06:48.518Z,21.45
2016-05-23T04:07:48.537Z,21.4
2016-05-23T04:08:48.571Z,21.35
2016-05-23T04:09:48.589Z,21.4
2016-05-23T04:10:48.623Z,21.46
2016-05-23T04:11:48.656Z,21.46
2016-05-23T04:12:48.675Z,21.46
2016-05-23T04:13:48.553Z,21.43
2016-05-23T04:14:48.743Z,21.48
2016-05-23T04:15:48.776Z,21.46
2016-05-23T04:16:48.795Z,21.42
2016-05-23T04:17:48.814Z,21.39
2016-05-23T04:18:48.675Z,21.42
2016-05-23T04:19:48.866Z,21.42
2016-05-23T04:20:48.915Z,21.4
2016-05-23T04:21:48.917Z,21.42
2016-05-23T04:22:48.639Z,21.43
2016-05-23T04:23:48.970Z,21.39
2016-05-23T04:24:49.004Z,21.3
2016-05-23T04:25:48.725Z,21.42
2016-05-23T04:26:49.056Z,21.4
2016-05-23T04:27:49.091Z,21.37
2016-05-23T04:28:48.968Z,21.35
2016-05-23T04:29:49.158Z,21.37
2016-05-23T04:30:49.020Z,21.36
2016-05-23T04:31:49.038Z,21.43
2016-05-23T04:32:49.228Z,21.36
2016-05-23T04:33:49.246Z,21.29
2016-05-23T04:34:49.452Z,21.39
2016-05-23T04:35:49.315Z,21.39
2016-05-23T04:36:49.333Z,21.29
2016-05-23T04:37:49.367Z,21.36
2016-05-23T04:38:49.385Z,21.45
2016-05-23T04:39:49.420Z,21.43
2016-05-23T04:40:49.437Z,21.37
2016-05-23T04:41:49.409Z,21.39
2016-05-23T04:42:49.349Z,21.4
2016-05-23T04:43:49.556Z,21.43
2016-05-23T04:44:50.573Z,21.46
2016-05-23T04:45:49.451Z,21.39
2016-05-23T04:46:49.454Z,21.43
2016-05-23T04:47:49.644Z,21.36
2016-05-23T04:48:49.662Z,21.4
2016-05-23T04:49:49.790Z,21.42
2016-05-23T04:50:49.715Z,21.42
2016-05-23T04:51:49.749Z,21.33
2016-05-23T04:52:49.829Z,21.37
2016-05-23T04:53:49.801Z,21.37
2016-05-23T04:54:49.928Z,21.42
2016-05-23T04:55:49.713Z,21.39
2016-05-23T04:56:49.887Z,21.4
2016-05-23T04:57:49.765Z,21.39
2016-05-23T04:58:49.939Z,21.36
2016-05-23T04:59:49.769Z,21.4
2016-05-23T05:00:49.992Z,21.37
2016-05-23T05:01:50.025Z,21.45
2016-05-23T05:02:50.044Z,21.37
2016-05-23T05:03:49.937Z,21.36
2016-05-23T05:04:49.955Z,21.42
2016-05-23T05:05:50.130Z,21.36
2016-05-23T05:06:50.149Z,21.36
2016-05-23T05:07:50.026Z,21.46
2016-05-23T05:08:50.216Z,21.4
2016-05-23T05:09:50.094Z,21.45
2016-05-23T05:10:50.284Z,21.43
2016-05-23T05:11:50.302Z,21.5
2016-05-23T05:12:50.337Z,21.51
2016-05-23T05:13:50.354Z,21.51
2016-05-23T05:14:50.420Z,21.5
2016-05-23T05:15:50.422Z,21.52
2016-05-23T05:16:50.785Z,21.58
2016-05-23T05:17:50.303Z,21.58
2016-05-23T05:18:50.509Z,21.52
2016-05-23T05:19:50.527Z,21.54
2016-05-23T05:20:50.390Z,21.58
2016-05-23T05:21:50.595Z,21.55
2016-05-23T05:22:50.597Z,21.55
2016-05-23T05:23:50.632Z,21.52
2016-05-23T05:24:50.650Z,21.61
2016-05-23T05:25:50.699Z,21.54
2016-05-23T05:26:50.718Z,21.55
2016-05-23T05:27:50.580Z,21.54
2016-05-23T05:28:50.614Z,21.51
2016-05-23T05:29:51.180Z,21.61
2016-05-23T05:30:50.822Z,21.6
2016-05-23T05:31:50.856Z,21.6
2016-05-23T05:32:50.733Z,21.66
2016-05-23T05:33:50.893Z,21.66
2016-05-23T05:34:50.771Z,21.69
2016-05-23T05:35:50.649Z,21.72
2016-05-23T05:36:50.994Z,21.72
2016-05-23T05:37:51.013Z,21.64
2016-05-23T05:38:51.047Z,21.69
2016-05-23T05:39:50.910Z,21.8
2016-05-23T05:40:51.099Z,21.79
2016-05-23T05:41:50.977Z,21.75
2016-05-23T05:42:51.152Z,21.79
2016-05-23T05:43:51.201Z,21.8
2016-05-23T05:44:51.063Z,21.83
2016-05-23T05:45:51.237Z,21.88
2016-05-23T05:46:51.256Z,21.8
2016-05-23T05:47:51.306Z,21.8
2016-05-23T05:48:51.308Z,21.82
2016-05-23T05:49:51.186Z,21.85
2016-05-23T05:50:51.376Z,21.83
2016-05-23T05:51:51.239Z,21.79
2016-05-23T05:52:51.272Z,21.91
2016-05-23T05:53:51.462Z,21.89
2016-05-23T05:54:51.481Z,21.88
2016-05-23T05:55:51.514Z,21.88
2016-05-23T05:56:51.548Z,21.82
2016-05-23T05:57:51.411Z,21.88
2016-05-23T05:58:51.617Z,21.85
2016-05-23T05:59:51.619Z,21.89
2016-05-23T06:00:51.653Z,21.85
2016-05-23T06:01:51.672Z,21.85
2016-05-23T06:02:51.706Z,21.8
2016-05-23T06:03:51.739Z,21.92
2016-05-23T06:04:51.758Z,21.93
2016-05-23T06:05:51.792Z,21.85
2016-05-23T06:06:51.810Z,21.92
2016-05-23T06:07:51.843Z,21.91
2016-05-23T06:08:51.705Z,21.89
2016-05-23T06:09:51.912Z,21.98
2016-05-23T06:10:51.930Z,21.91
2016-05-23T06:11:51.963Z,21.89
2016-05-23T06:12:51.982Z,21.82
2016-05-23T06:13:52.000Z,21.91
2016-05-23T06:14:53.066Z,21.88
2016-05-23T06:15:52.068Z,21.92
2016-05-23T06:16:51.946Z,21.89
2016-05-23T06:17:52.121Z,21.95
2016-05-23T06:18:52.155Z,21.95
2016-05-23T06:19:52.189Z,21.93
2016-05-23T06:20:52.192Z,21.89
2016-05-23T06:21:52.226Z,21.91
2016-05-23T06:22:52.103Z,21.89
2016-05-23T06:23:52.292Z,21.92
2016-05-23T06:24:52.170Z,21.95
2016-05-23T06:25:52.361Z,21.98
2016-05-23T06:26:52.364Z,21.95
2016-05-23T06:27:52.397Z,21.96
2016-05-23T06:28:52.431Z,21.98
2016-05-23T06:29:52.887Z,22.02
2016-05-23T06:30:53.594Z,21.99
2016-05-23T06:31:52.502Z,22.02
2016-05-23T06:32:52.536Z,22
2016-05-23T06:33:52.555Z,22.02
2016-05-23T06:34:52.589Z,22.06
2016-05-23T06:35:53.560Z,22.11
2016-05-23T06:36:52.641Z,22.17
2016-05-23T06:37:52.675Z,22.1
2016-05-23T06:38:52.709Z,22.11
2016-05-23T06:39:52.742Z,22.2
2016-05-23T06:40:55.496Z,22.26
2016-05-23T06:41:52.623Z,22.23
2016-05-23T06:42:52.829Z,22.25
2016-05-23T06:43:52.831Z,22.32
2016-05-23T06:44:53.349Z,22.3
2016-05-23T06:45:53.712Z,22.32
2016-05-23T06:46:52.918Z,22.36
2016-05-23T06:47:52.952Z,22.43
2016-05-23T06:48:52.699Z,22.47
2016-05-23T06:49:53.071Z,22.5
2016-05-23T06:50:55.270Z,22.53
2016-05-23T06:51:53.158Z,22.48
2016-05-23T06:52:53.217Z,22.59
2016-05-23T06:53:53.259Z,22.57
2016-05-23T06:54:53.146Z,22.53
2016-05-23T06:55:55.924Z,22.44
2016-05-23T06:56:53.359Z,22.47
2016-05-23T06:57:53.245Z,22.51
2016-05-23T06:58:53.454Z,22.44
2016-05-23T06:59:53.475Z,22.53
2016-05-23T07:00:54.732Z,22.45
2016-05-23T07:01:53.518Z,22.53
2016-05-23T07:02:53.555Z,22.5
2016-05-23T07:03:53.434Z,22.51
2016-05-23T07:04:53.626Z,22.62
2016-05-23T07:05:53.675Z,22.62
2016-05-23T07:06:53.679Z,22.55
2016-05-23T07:07:53.699Z,22.57
2016-05-23T07:08:53.733Z,22.62
2016-05-23T07:09:53.611Z,22.62
2016-05-23T07:10:53.787Z,22.57
2016-05-23T07:11:53.649Z,22.63
2016-05-23T07:12:53.698Z,22.57
2016-05-23T07:13:53.874Z,22.65
2016-05-23T07:14:53.955Z,22.69
2016-05-23T07:15:53.770Z,22.68
2016-05-23T07:16:53.961Z,22.68
2016-05-23T07:17:53.996Z,22.73
2016-05-23T07:18:54.013Z,22.69
2016-05-23T07:19:54.048Z,22.7
2016-05-23T07:20:54.066Z,22.68
2016-05-23T07:21:54.100Z,22.68
2016-05-23T07:22:54.135Z,22.7
2016-05-23T07:23:53.996Z,22.81
2016-05-23T07:24:54.187Z,22.81
2016-05-23T07:25:54.064Z,22.8
2016-05-23T07:26:54.238Z,22.88
2016-05-23T07:27:54.256Z,22.87
2016-05-23T07:28:54.290Z,22.88
2016-05-23T07:29:54.450Z,22.9
2016-05-23T07:30:54.359Z,22.88
2016-05-23T07:31:54.376Z,22.99
2016-05-23T07:32:54.411Z,22.96
2016-05-23T07:33:54.444Z,23.05
2016-05-23T07:34:54.464Z,23.02
2016-05-23T07:35:54.497Z,22.94
2016-05-23T07:36:54.515Z,23.08
2016-05-23T07:37:54.550Z,23.12
2016-05-23T07:38:54.584Z,23.17
2016-05-23T07:39:54.617Z,23.13
2016-05-23T07:40:54.636Z,23.24
2016-05-23T07:41:54.497Z,23.25
2016-05-23T07:42:54.531Z,23.28
2016-05-23T07:43:54.721Z,23.23
2016-05-23T07:44:55.162Z,23.39
2016-05-23T07:45:54.774Z,23.37
2016-05-23T07:46:54.807Z,23.48
2016-05-23T07:47:54.857Z,23.47
2016-05-23T07:48:54.860Z,23.54
2016-05-23T07:49:54.893Z,23.65
2016-05-23T07:50:54.928Z,23.66
2016-05-23T07:51:54.790Z,23.69
2016-05-23T07:52:54.980Z,23.86
2016-05-23T07:53:55.014Z,23.73
2016-05-23T07:54:54.876Z,23.77
2016-05-23T07:55:55.066Z,23.81
2016-05-23T07:56:55.085Z,23.84
2016-05-23T07:57:55.118Z,23.93
2016-05-23T07:58:55.153Z,23.87
2016-05-23T07:59:55.639Z,23.91
2016-05-23T08:00:55.221Z,23.91
2016-05-23T08:01:55.223Z,23.95
2016-05-23T08:02:55.257Z,24.01
2016-05-23T08:03:55.291Z,24.11
2016-05-23T08:04:55.340Z,24.1
2016-05-23T08:05:55.187Z,24.16
2016-05-23T08:06:55.378Z,24.03
2016-05-23T08:07:55.395Z,24.11
2016-05-23T08:08:55.430Z,24.17
2016-05-23T08:09:55.464Z,24.14
2016-05-23T08:10:55.498Z,24.18
2016-05-23T08:11:55.516Z,24.18
2016-05-23T08:12:55.550Z,24.23
2016-05-23T08:13:55.428Z,24.24
2016-05-23T08:14:55.477Z,24.21
2016-05-23T08:15:55.651Z,24.21
2016-05-23T08:16:55.669Z,24.23
2016-05-23T08:17:55.547Z,24.28
2016-05-23T08:18:56.160Z,24.29
2016-05-23T08:19:55.741Z,24.38
2016-05-23T08:20:55.774Z,24.45
2016-05-23T08:21:55.840Z,24.4
2016-05-23T08:22:55.842Z,24.54
2016-05-23T08:23:55.876Z,24.53
2016-05-23T08:24:55.893Z,24.51
2016-05-23T08:25:55.929Z,24.55
2016-05-23T08:26:55.946Z,24.55
2016-05-23T08:27:55.996Z,24.54
2016-05-23T08:28:56.014Z,24.5
2016-05-23T08:29:56.017Z,24.53
2016-05-23T08:30:56.067Z,24.55
2016-05-23T08:31:55.945Z,24.54
2016-05-23T08:32:55.978Z,24.65
2016-05-23T08:33:56.153Z,24.68
2016-05-23T08:34:56.187Z,24.61
2016-05-23T08:35:56.049Z,24.57
2016-05-23T08:36:56.255Z,24.63
2016-05-23T08:37:56.273Z,24.58
2016-05-23T08:38:56.167Z,24.61
2016-05-23T08:39:56.341Z,24.69
2016-05-23T08:40:56.375Z,24.68
2016-05-23T08:41:56.393Z,24.66
2016-05-23T08:42:56.427Z,24.73
2016-05-23T08:43:56.445Z,24.74
2016-05-23T08:44:56.480Z,24.74
2016-05-23T08:45:56.358Z,24.76
2016-05-23T08:46:56.610Z,24.76
2016-05-23T08:47:56.456Z,24.78
2016-05-23T08:48:56.600Z,24.85
2016-05-23T08:49:56.477Z,24.88
2016-05-23T08:50:56.667Z,24.86
2016-05-23T08:51:56.685Z,24.88
2016-05-23T08:52:56.719Z,24.99
2016-05-23T08:53:56.738Z,24.95
2016-05-23T08:54:56.772Z,25.03
2016-05-23T08:55:56.650Z,25.06
2016-05-23T08:56:56.918Z,25.13
2016-05-23T08:57:56.874Z,25.18
2016-05-23T08:58:56.892Z,25.22
2016-05-23T08:59:56.770Z,25.29
2016-05-23T09:00:56.991Z,25.47
2016-05-23T09:01:56.978Z,25.43
2016-05-23T09:02:56.996Z,25.53
2016-05-23T09:03:57.046Z,25.55
2016-05-23T09:04:57.081Z,25.73
2016-05-23T09:05:56.958Z,25.68
2016-05-23T09:06:57.132Z,25.72
2016-05-23T09:07:57.151Z,25.81
2016-05-23T09:08:57.184Z,25.84
2016-05-23T09:09:57.219Z,25.95
2016-05-23T09:10:57.236Z,25.96
2016-05-23T09:11:57.270Z,26.03
2016-05-23T09:12:57.398Z,26.06
2016-05-23T09:13:57.339Z,26.06
2016-05-23T09:14:57.576Z,26.07
2016-05-23T09:15:57.391Z,26.16
2016-05-23T09:16:57.284Z,26.1
2016-05-23T09:18:02.334Z,26.16
2016-05-23T09:18:57.494Z,26.09
2016-05-23T09:19:57.511Z,26.07
2016-05-23T09:20:57.545Z,26.09
2016-05-23T09:21:57.563Z,26.15
2016-05-23T09:22:57.613Z,26.1
2016-05-23T09:23:57.631Z,26.09
2016-05-23T09:24:57.509Z,26.16
2016-05-23T09:25:57.793Z,26.06
2016-05-23T09:26:57.733Z,26.22
2016-05-23T09:27:57.610Z,26.21
2016-05-23T09:28:57.785Z,26.19
2016-05-23T09:29:57.773Z,26.1
2016-05-23T09:30:57.853Z,26.23
2016-05-23T09:31:58.887Z,26.21
2016-05-23T09:32:57.749Z,26.34
2016-05-23T09:33:58.001Z,26.29
2016-05-23T09:34:57.973Z,26.28
2016-05-23T09:35:58.007Z,26.36
2016-05-23T09:36:58.025Z,26.41
2016-05-23T09:37:57.903Z,26.43
2016-05-23T09:38:57.937Z,26.45
2016-05-23T09:39:58.127Z,26.44
2016-05-23T09:40:58.161Z,26.45
2016-05-23T09:41:58.211Z,26.45
2016-05-23T09:42:58.214Z,26.47
2016-05-23T09:43:58.076Z,26.47
2016-05-23T09:44:58.594Z,26.52
2016-05-23T09:45:58.316Z,26.48
2016-05-23T09:47:00.427Z,26.56
2016-05-23T09:47:58.384Z,26.53
2016-05-23T09:48:58.386Z,26.58
2016-05-23T09:49:58.419Z,26.63
2016-05-23T09:50:58.563Z,26.6
2016-05-23T09:51:59.597Z,26.65
2016-05-23T09:52:58.522Z,26.58
2016-05-23T09:53:58.399Z,26.62
2016-05-23T09:54:58.574Z,26.63
2016-05-23T09:55:58.608Z,26.63
2016-05-23T09:56:58.641Z,26.59
2016-05-23T09:57:58.660Z,26.62
2016-05-23T09:58:58.694Z,26.7
2016-05-23T09:59:58.666Z,26.75
2016-05-23T10:00:58.606Z,26.74
2016-05-23T10:02:00.359Z,26.75
2016-05-23T10:02:58.815Z,26.75
2016-05-23T10:03:58.724Z,26.73
2016-05-23T10:04:58.882Z,26.77
2016-05-23T10:05:58.776Z,26.84
2016-05-23T10:07:00.372Z,26.75
2016-05-23T10:07:58.984Z,26.75
2016-05-23T10:08:58.939Z,26.62
2016-05-23T10:09:59.051Z,26.62
2016-05-23T10:10:58.914Z,26.66
2016-05-23T10:11:59.104Z,26.68
2016-05-23T10:12:59.216Z,26.62
2016-05-23T10:13:59.172Z,26.55
2016-05-23T10:14:59.690Z,26.59
2016-05-23T10:15:59.225Z,26.56
2016-05-23T10:16:59.258Z,26.48
2016-05-23T10:17:59.291Z,26.56
2016-05-23T10:19:00.701Z,26.56
2016-05-23T10:19:59.438Z,26.48
2016-05-23T10:20:59.378Z,26.52
2016-05-23T10:21:59.412Z,26.52
2016-05-23T10:22:59.290Z,26.52
2016-05-23T10:24:00.261Z,26.52
2016-05-23T10:24:59.530Z,26.6
2016-05-23T10:25:59.532Z,26.66
2016-05-23T10:26:59.566Z,26.66
2016-05-23T10:27:59.600Z,26.62
2016-05-23T10:29:00.010Z,26.66
2016-05-23T10:29:59.746Z,26.78
2016-05-23T10:30:59.546Z,26.81
2016-05-23T10:31:59.736Z,26.77
2016-05-23T10:32:59.771Z,26.78
2016-05-23T10:34:01.803Z,26.8
2016-05-23T10:34:59.853Z,26.88
2016-05-23T10:35:59.871Z,26.93
2016-05-23T10:36:59.874Z,26.85
2016-05-23T10:37:59.908Z,26.99
2016-05-23T10:39:03.333Z,27.07
2016-05-23T10:39:59.976Z,27.08
2016-05-23T10:40:59.995Z,27.15
2016-05-23T10:42:00.028Z,27.2
2016-05-23T10:43:00.062Z,27.1
2016-05-23T10:44:03.174Z,27.12
2016-05-23T10:45:00.130Z,27.17
2016-05-23T10:46:00.164Z,27.25
2016-05-23T10:47:00.198Z,27.3
2016-05-23T10:48:00.060Z,27.29
2016-05-23T10:49:03.641Z,27.37
2016-05-23T10:50:00.269Z,27.35
2016-05-23T10:51:00.303Z,27.42
2016-05-23T10:52:00.336Z,27.48
2016-05-23T10:53:00.386Z,27.51
2016-05-23T10:54:03.342Z,27.54
2016-05-23T10:55:00.439Z,27.49
2016-05-23T10:56:00.472Z,27.63
2016-05-23T10:57:00.349Z,27.65
2016-05-23T10:58:00.524Z,27.67
2016-05-23T10:59:00.558Z,27.68
2016-05-23T11:00:00.546Z,27.75
2016-05-23T11:01:00.626Z,27.74
2016-05-23T11:02:00.660Z,27.83
2016-05-23T11:03:00.694Z,27.83
2016-05-23T11:04:00.729Z,28
2016-05-23T11:05:00.590Z,28.05
2016-05-23T11:06:00.781Z,28.01
2016-05-23T11:07:00.815Z,28.04
2016-05-23T11:08:00.849Z,28.1
2016-05-23T11:09:00.960Z,28.15
2016-05-23T11:10:00.917Z,28.22
2016-05-23T11:11:00.778Z,28.29
2016-05-23T11:12:00.968Z,28.23
2016-05-23T11:13:01.003Z,28.3
2016-05-23T11:14:01.098Z,28.32
2016-05-23T11:15:01.211Z,28.37
2016-05-23T11:16:01.104Z,28.32
2016-05-23T11:17:01.139Z,28.37
2016-05-23T11:18:01.079Z,28.38
2016-05-23T11:19:01.191Z,28.41
2016-05-23T11:20:01.225Z,28.32
2016-05-23T11:21:01.258Z,28.48
2016-05-23T11:22:01.308Z,28.49
2016-05-23T11:23:01.342Z,28.44
2016-05-23T11:24:01.360Z,28.51
2016-05-23T11:25:01.394Z,28.51
2016-05-23T11:26:01.256Z,28.49
2016-05-23T11:27:01.447Z,28.49
2016-05-23T11:28:01.480Z,28.62
2016-05-23T11:29:01.577Z,28.6
2016-05-23T11:30:01.736Z,28.7
2016-05-23T11:31:01.582Z,28.72
2016-05-23T11:32:01.616Z,28.84
2016-05-23T11:33:01.682Z,28.89
2016-05-23T11:34:01.700Z,28.98
2016-05-23T11:35:01.702Z,28.98
2016-05-23T11:36:01.737Z,28.96
2016-05-23T11:37:01.786Z,29.2
2016-05-23T11:38:01.898Z,29.17
2016-05-23T11:39:01.838Z,29.36
2016-05-23T11:40:01.872Z,29.27
2016-05-23T11:41:01.906Z,29.42
2016-05-23T11:42:01.940Z,29.34
2016-05-23T11:43:01.801Z,29.44
2016-05-23T11:44:01.992Z,29.56
2016-05-23T11:45:02.386Z,29.57
2016-05-23T11:46:02.075Z,29.72
2016-05-23T11:47:02.203Z,29.73
2016-05-23T11:48:02.128Z,29.84
2016-05-23T11:49:02.161Z,29.98
2016-05-23T11:50:02.195Z,30
2016-05-23T11:51:02.230Z,30.02
2016-05-23T11:52:02.108Z,30.18
2016-05-23T11:53:02.142Z,30.19
2016-05-23T11:54:02.175Z,30.18
2016-05-23T11:55:02.366Z,30.23
2016-05-23T11:56:02.399Z,30.27
2016-05-23T11:57:02.121Z,30.37
2016-05-23T11:58:02.467Z,30.5
2016-05-23T11:59:02.502Z,30.62
2016-05-23T12:00:03.098Z,30.68
2016-05-23T12:01:02.568Z,30.81
2016-05-23T12:02:02.696Z,30.84
2016-05-23T12:03:02.637Z,30.99
2016-05-23T12:04:02.655Z,31.12
2016-05-23T12:05:02.752Z,31.29
2016-05-23T12:06:02.724Z,31.39
2016-05-23T12:07:02.757Z,31.37
2016-05-23T12:08:02.791Z,31.46
2016-05-23T12:09:02.888Z,31.51
2016-05-23T12:10:02.704Z,31.51
2016-05-23T12:11:02.987Z,31.74
2016-05-23T12:12:02.926Z,31.58
2016-05-23T12:13:02.804Z,31.73
2016-05-23T12:14:03.026Z,31.69
2016-05-23T12:15:03.029Z,31.66
2016-05-23T12:16:03.062Z,31.77
2016-05-23T12:17:03.097Z,31.76
2016-05-23T12:18:03.130Z,31.81
2016-05-23T12:19:03.164Z,31.8
2016-05-23T12:20:03.198Z,31.81
2016-05-23T12:21:03.233Z,31.94
2016-05-23T12:22:03.267Z,31.93
2016-05-23T12:23:03.144Z,31.97
2016-05-23T12:24:03.350Z,31.96
2016-05-23T12:25:03.211Z,32.01
2016-05-23T12:26:03.402Z,31.96
2016-05-23T12:27:03.530Z,32.01
2016-05-23T12:28:03.470Z,31.96
2016-05-23T12:29:03.597Z,32
2016-05-23T12:30:03.600Z,31.92
2016-05-23T12:31:03.697Z,31.94
2016-05-23T12:32:03.605Z,31.89
2016-05-23T12:33:03.733Z,31.93
2016-05-23T12:34:03.673Z,31.81
2016-05-23T12:35:03.551Z,31.84
2016-05-23T12:36:03.741Z,31.78
2016-05-23T12:37:03.854Z,31.78
2016-05-23T12:38:03.654Z,31.8
2016-05-23T12:39:03.937Z,31.8
2016-05-23T12:40:03.876Z,31.81
2016-05-23T12:41:03.770Z,31.84
2016-05-23T12:42:03.960Z,31.87
2016-05-23T12:43:03.979Z,31.85
2016-05-23T12:44:04.076Z,31.89
2016-05-23T12:45:04.578Z,31.89
2016-05-23T12:46:04.081Z,31.85
2016-05-23T12:47:03.974Z,31.96
2016-05-23T12:48:04.384Z,31.99
2016-05-23T12:49:04.198Z,31.93
2016-05-23T12:50:04.185Z,32.03
2016-05-23T12:51:04.282Z,32.07
2016-05-23T12:52:04.300Z,32.15
2016-05-23T12:53:04.428Z,32.3
2016-05-23T12:54:04.368Z,32.34
2016-05-23T12:55:04.402Z,32.37
2016-05-23T12:56:04.497Z,32.41